Terminal Aerodrome Forecast
Issued by NWS Indianapolis, IN

Home | Current Version | Previous Version | Text Only | Print | Product List | Glossary On
Versions: 1 2 3 4 5 6 7 8 9 10 11 12 13 14 15 16 17 18 19 20 21 22 23 24 25 26 27 28 29 30 31 32 33 34 35 36 37 38
285
FTUS43 KIND 210520
TAFIND
TAF
KIND 210520Z 2106/2212 17007KT P6SM BKN025
     FM211300 18006KT P6SM BKN035
     FM211700 19010KT P6SM SCT045 BKN130
     FM220000 16006KT P6SM SCT045 BKN080
     FM220500 16005KT 6SM BR VCSH BKN030
     FM221100 09004KT 4SM -SHRA BR OVC020=

USA.gov is the U.S. government's official web portal to all federal, state and local government web resources and services.